sensor_id;sensor_type;location;lat;lon;timestamp;P1;durP1;ratioP1;P2;durP2;ratioP2
46651;SDS011;32377;52.182;5.398;2022-12-07T00:01:07;17.03;;;8.60;;
46651;SDS011;32377;52.182;5.398;2022-12-07T00:03:34;16.60;;;8.73;;
46651;SDS011;32377;52.182;5.398;2022-12-07T00:06:01;20.43;;;9.90;;
46651;SDS011;32377;52.182;5.398;2022-12-07T00:08:28;17.77;;;8.83;;
46651;SDS011;32377;52.182;5.398;2022-12-07T00:10:54;19.57;;;9.10;;
46651;SDS011;32377;52.182;5.398;2022-12-07T00:13:20;20.37;;;10.40;;
46651;SDS011;32377;52.182;5.398;2022-12-07T00:15:45;20.73;;;9.87;;
46651;SDS011;32377;52.182;5.398;2022-12-07T00:18:11;20.00;;;10.23;;
46651;SDS011;32377;52.182;5.398;2022-12-07T00:20:37;16.07;;;9.53;;
46651;SDS011;32377;52.182;5.398;2022-12-07T00:23:02;19.43;;;10.73;;
46651;SDS011;32377;52.182;5.398;2022-12-07T00:25:28;20.33;;;10.67;;
46651;SDS011;32377;52.182;5.398;2022-12-07T00:27:55;23.63;;;9.83;;
46651;SDS011;32377;52.182;5.398;2022-12-07T00:30:21;22.50;;;9.80;;
46651;SDS011;32377;52.182;5.398;2022-12-07T00:32:48;21.93;;;10.00;;
46651;SDS011;32377;52.182;5.398;2022-12-07T00:35:14;18.70;;;9.67;;
46651;SDS011;32377;52.182;5.398;2022-12-07T00:37:39;19.33;;;9.60;;
46651;SDS011;32377;52.182;5.398;2022-12-07T00:40:05;19.33;;;9.55;;
46651;SDS011;32377;52.182;5.398;2022-12-07T00:42:31;20.20;;;9.80;;
46651;SDS011;32377;52.182;5.398;2022-12-07T00:44:57;22.07;;;9.50;;
46651;SDS011;32377;52.182;5.398;2022-12-07T00:47:22;15.60;;;9.57;;
46651;SDS011;32377;52.182;5.398;2022-12-07T00:49:48;19.58;;;9.98;;
46651;SDS011;32377;52.182;5.398;2022-12-07T00:52:13;22.47;;;10.00;;
46651;SDS011;32377;52.182;5.398;2022-12-07T00:54:39;28.03;;;9.90;;
46651;SDS011;32377;52.182;5.398;2022-12-07T00:57:05;19.53;;;9.33;;
46651;SDS011;32377;52.182;5.398;2022-12-07T00:59:31;22.87;;;9.73;;
46651;SDS011;32377;52.182;5.398;2022-12-07T01:01:57;21.33;;;9.30;;
46651;SDS011;32377;52.182;5.398;2022-12-07T01:04:22;23.97;;;9.80;;
46651;SDS011;32377;52.182;5.398;2022-12-07T01:06:48;18.90;;;9.20;;
46651;SDS011;32377;52.182;5.398;2022-12-07T01:09:13;17.07;;;9.73;;
46651;SDS011;32377;52.182;5.398;2022-12-07T01:11:39;20.70;;;8.13;;
46651;SDS011;32377;52.182;5.398;2022-12-07T01:14:05;17.87;;;8.60;;
46651;SDS011;32377;52.182;5.398;2022-12-07T01:16:31;15.90;;;8.67;;
46651;SDS011;32377;52.182;5.398;2022-12-07T01:18:57;22.43;;;8.77;;
46651;SDS011;32377;52.182;5.398;2022-12-07T01:21:26;15.60;;;7.40;;
46651;SDS011;32377;52.182;5.398;2022-12-07T01:24:01;14.23;;;7.23;;
46651;SDS011;32377;52.182;5.398;2022-12-07T01:26:27;19.77;;;7.23;;
46651;SDS011;32377;52.182;5.398;2022-12-07T01:28:53;18.50;;;6.83;;
46651;SDS011;32377;52.182;5.398;2022-12-07T01:31:20;18.40;;;7.30;;
46651;SDS011;32377;52.182;5.398;2022-12-07T01:33:49;20.10;;;7.30;;
46651;SDS011;32377;52.182;5.398;2022-12-07T01:36:27;18.57;;;8.47;;
46651;SDS011;32377;52.182;5.398;2022-12-07T01:38:56;17.20;;;6.23;;
46651;SDS011;32377;52.182;5.398;2022-12-07T01:41:25;20.37;;;6.03;;
46651;SDS011;32377;52.182;5.398;2022-12-07T01:46:35;19.10;;;6.07;;
46651;SDS011;32377;52.182;5.398;2022-12-07T01:49:01;20.80;;;5.93;;
46651;SDS011;32377;52.182;5.398;2022-12-07T01:51:31;20.87;;;6.20;;
46651;SDS011;32377;52.182;5.398;2022-12-07T01:53:57;13.00;;;5.47;;
46651;SDS011;32377;52.182;5.398;2022-12-07T01:56:24;18.97;;;5.83;;
46651;SDS011;32377;52.182;5.398;2022-12-07T01:58:52;23.30;;;5.80;;
46651;SDS011;32377;52.182;5.398;2022-12-07T02:01:19;13.03;;;4.73;;
46651;SDS011;32377;52.182;5.398;2022-12-07T02:03:45;14.97;;;4.63;;
46651;SDS011;32377;52.182;5.398;2022-12-07T02:06:14;17.80;;;4.77;;
46651;SDS011;32377;52.182;5.398;2022-12-07T02:08:43;16.23;;;5.80;;
46651;SDS011;32377;52.182;5.398;2022-12-07T02:11:09;17.30;;;4.20;;
46651;SDS011;32377;52.182;5.398;2022-12-07T02:13:36;10.23;;;3.97;;
46651;SDS011;32377;52.182;5.398;2022-12-07T02:18:55;17.05;;;3.50;;
46651;SDS011;32377;52.182;5.398;2022-12-07T02:21:46;10.63;;;4.07;;
46651;SDS011;32377;52.182;5.398;2022-12-07T02:30:15;16.40;;;4.07;;
46651;SDS011;32377;52.182;5.398;2022-12-07T02:33:00;14.33;;;4.10;;
46651;SDS011;32377;52.182;5.398;2022-12-07T02:35:37;12.30;;;3.50;;
46651;SDS011;32377;52.182;5.398;2022-12-07T02:38:16;12.93;;;3.40;;
46651;SDS011;32377;52.182;5.398;2022-12-07T02:40:53;14.13;;;3.90;;
46651;SDS011;32377;52.182;5.398;2022-12-07T02:43:27;13.43;;;3.30;;
46651;SDS011;32377;52.182;5.398;2022-12-07T02:46:02;15.53;;;3.53;;
46651;SDS011;32377;52.182;5.398;2022-12-07T02:51:38;15.33;;;3.93;;
46651;SDS011;32377;52.182;5.398;2022-12-07T02:54:24;11.60;;;3.17;;
46651;SDS011;32377;52.182;5.398;2022-12-07T02:56:50;14.67;;;4.87;;
46651;SDS011;32377;52.182;5.398;2022-12-07T02:59:36;9.97;;;3.83;;
46651;SDS011;32377;52.182;5.398;2022-12-07T03:02:52;13.13;;;3.23;;
46651;SDS011;32377;52.182;5.398;2022-12-07T03:18:57;17.07;;;4.90;;
46651;SDS011;32377;52.182;5.398;2022-12-07T03:21:33;11.37;;;5.53;;
46651;SDS011;32377;52.182;5.398;2022-12-07T03:24:04;14.30;;;4.60;;
46651;SDS011;32377;52.182;5.398;2022-12-07T03:26:36;10.00;;;3.67;;
46651;SDS011;32377;52.182;5.398;2022-12-07T03:29:07;13.70;;;4.33;;
46651;SDS011;32377;52.182;5.398;2022-12-07T03:31:46;13.57;;;4.37;;
46651;SDS011;32377;52.182;5.398;2022-12-07T03:34:21;12.77;;;3.97;;
46651;SDS011;32377;52.182;5.398;2022-12-07T03:36:54;15.27;;;4.00;;
46651;SDS011;32377;52.182;5.398;2022-12-07T03:39:25;9.60;;;3.50;;
46651;SDS011;32377;52.182;5.398;2022-12-07T03:41:56;9.30;;;3.53;;
46651;SDS011;32377;52.182;5.398;2022-12-07T03:44:23;12.70;;;3.97;;
46651;SDS011;32377;52.182;5.398;2022-12-07T03:46:57;12.30;;;4.03;;
46651;SDS011;32377;52.182;5.398;2022-12-07T03:52:23;12.63;;;4.07;;
46651;SDS011;32377;52.182;5.398;2022-12-07T03:55:11;9.03;;;4.33;;
46651;SDS011;32377;52.182;5.398;2022-12-07T03:57:43;17.83;;;5.05;;
46651;SDS011;32377;52.182;5.398;2022-12-07T04:00:11;17.93;;;4.33;;
46651;SDS011;32377;52.182;5.398;2022-12-07T04:02:37;15.70;;;4.63;;
46651;SDS011;32377;52.182;5.398;2022-12-07T04:05:03;10.07;;;3.80;;
46651;SDS011;32377;52.182;5.398;2022-12-07T04:07:29;10.40;;;3.90;;
46651;SDS011;32377;52.182;5.398;2022-12-07T04:09:55;14.17;;;3.83;;
46651;SDS011;32377;52.182;5.398;2022-12-07T04:12:21;13.40;;;3.83;;
46651;SDS011;32377;52.182;5.398;2022-12-07T04:14:47;9.67;;;3.60;;
46651;SDS011;32377;52.182;5.398;2022-12-07T04:17:13;14.00;;;5.20;;
46651;SDS011;32377;52.182;5.398;2022-12-07T04:19:39;9.80;;;4.00;;
46651;SDS011;32377;52.182;5.398;2022-12-07T04:22:04;11.33;;;3.43;;
46651;SDS011;32377;52.182;5.398;2022-12-07T04:24:31;12.40;;;4.07;;
46651;SDS011;32377;52.182;5.398;2022-12-07T04:26:57;13.97;;;3.93;;
46651;SDS011;32377;52.182;5.398;2022-12-07T04:29:23;18.33;;;4.20;;
46651;SDS011;32377;52.182;5.398;2022-12-07T04:31:49;8.30;;;3.73;;
46651;SDS011;32377;52.182;5.398;2022-12-07T04:34:16;18.47;;;3.67;;
46651;SDS011;32377;52.182;5.398;2022-12-07T04:36:43;10.37;;;3.63;;
46651;SDS011;32377;52.182;5.398;2022-12-07T04:39:14;10.80;;;3.83;;
46651;SDS011;32377;52.182;5.398;2022-12-07T04:41:53;7.80;;;3.67;;
46651;SDS011;32377;52.182;5.398;2022-12-07T04:44:19;10.60;;;3.93;;
46651;SDS011;32377;52.182;5.398;2022-12-07T04:46:46;11.87;;;4.47;;
46651;SDS011;32377;52.182;5.398;2022-12-07T04:49:12;15.00;;;4.20;;
46651;SDS011;32377;52.182;5.398;2022-12-07T04:51:39;9.90;;;3.70;;
46651;SDS011;32377;52.182;5.398;2022-12-07T04:54:05;15.23;;;3.73;;
46651;SDS011;32377;52.182;5.398;2022-12-07T04:56:31;17.60;;;4.27;;
46651;SDS011;32377;52.182;5.398;2022-12-07T04:58:57;7.90;;;3.13;;
46651;SDS011;32377;52.182;5.398;2022-12-07T05:01:23;12.23;;;3.67;;
46651;SDS011;32377;52.182;5.398;2022-12-07T05:03:49;7.90;;;3.73;;
46651;SDS011;32377;52.182;5.398;2022-12-07T05:06:15;7.93;;;3.40;;
46651;SDS011;32377;52.182;5.398;2022-12-07T05:08:42;13.37;;;3.83;;
46651;SDS011;32377;52.182;5.398;2022-12-07T05:11:08;15.07;;;3.67;;
46651;SDS011;32377;52.182;5.398;2022-12-07T05:13:54;14.60;;;3.47;;
46651;SDS011;32377;52.182;5.398;2022-12-07T05:16:20;14.63;;;4.20;;
46651;SDS011;32377;52.182;5.398;2022-12-07T05:18:46;17.43;;;3.50;;
46651;SDS011;32377;52.182;5.398;2022-12-07T05:21:11;10.17;;;3.33;;
46651;SDS011;32377;52.182;5.398;2022-12-07T05:23:37;11.87;;;3.30;;
46651;SDS011;32377;52.182;5.398;2022-12-07T05:26:02;11.37;;;3.43;;
46651;SDS011;32377;52.182;5.398;2022-12-07T05:28:28;13.90;;;2.73;;
46651;SDS011;32377;52.182;5.398;2022-12-07T05:30:53;15.40;;;2.77;;
46651;SDS011;32377;52.182;5.398;2022-12-07T05:33:19;7.93;;;1.93;;
46651;SDS011;32377;52.182;5.398;2022-12-07T05:35:44;10.67;;;2.40;;
46651;SDS011;32377;52.182;5.398;2022-12-07T05:38:10;7.83;;;1.67;;
46651;SDS011;32377;52.182;5.398;2022-12-07T05:40:36;13.17;;;2.00;;
46651;SDS011;32377;52.182;5.398;2022-12-07T05:43:02;9.57;;;1.87;;
46651;SDS011;32377;52.182;5.398;2022-12-07T05:45:27;7.90;;;1.80;;
46651;SDS011;32377;52.182;5.398;2022-12-07T05:47:53;8.93;;;1.90;;
46651;SDS011;32377;52.182;5.398;2022-12-07T05:50:19;7.60;;;1.80;;
46651;SDS011;32377;52.182;5.398;2022-12-07T05:52:44;6.87;;;1.70;;
46651;SDS011;32377;52.182;5.398;2022-12-07T05:55:10;8.97;;;1.90;;
46651;SDS011;32377;52.182;5.398;2022-12-07T05:57:35;9.50;;;1.80;;
46651;SDS011;32377;52.182;5.398;2022-12-07T06:00:02;8.43;;;2.03;;
46651;SDS011;32377;52.182;5.398;2022-12-07T06:02:29;10.57;;;2.20;;
46651;SDS011;32377;52.182;5.398;2022-12-07T06:04:54;11.53;;;2.10;;
46651;SDS011;32377;52.182;5.398;2022-12-07T06:07:20;8.83;;;2.10;;
46651;SDS011;32377;52.182;5.398;2022-12-07T06:09:46;8.23;;;2.20;;
46651;SDS011;32377;52.182;5.398;2022-12-07T06:12:11;12.53;;;2.37;;
46651;SDS011;32377;52.182;5.398;2022-12-07T06:14:56;5.95;;;2.13;;
46651;SDS011;32377;52.182;5.398;2022-12-07T06:17:22;7.73;;;1.90;;
46651;SDS011;32377;52.182;5.398;2022-12-07T06:19:48;11.93;;;2.63;;
46651;SDS011;32377;52.182;5.398;2022-12-07T06:22:13;10.27;;;2.10;;
46651;SDS011;32377;52.182;5.398;2022-12-07T06:24:41;11.43;;;2.77;;
46651;SDS011;32377;52.182;5.398;2022-12-07T06:27:07;14.23;;;2.40;;
46651;SDS011;32377;52.182;5.398;2022-12-07T06:29:33;13.90;;;3.00;;
46651;SDS011;32377;52.182;5.398;2022-12-07T06:31:58;12.93;;;2.03;;
46651;SDS011;32377;52.182;5.398;2022-12-07T06:34:24;9.63;;;2.40;;
46651;SDS011;32377;52.182;5.398;2022-12-07T06:36:53;9.33;;;2.80;;
46651;SDS011;32377;52.182;5.398;2022-12-07T06:39:24;12.07;;;3.47;;
46651;SDS011;32377;52.182;5.398;2022-12-07T06:41:51;9.67;;;3.33;;
46651;SDS011;32377;52.182;5.398;2022-12-07T06:44:18;16.00;;;2.57;;
46651;SDS011;32377;52.182;5.398;2022-12-07T06:46:45;11.60;;;2.73;;
46651;SDS011;32377;52.182;5.398;2022-12-07T06:49:10;11.83;;;2.60;;
46651;SDS011;32377;52.182;5.398;2022-12-07T06:51:36;14.87;;;2.53;;
46651;SDS011;32377;52.182;5.398;2022-12-07T06:54:06;10.10;;;2.60;;
46651;SDS011;32377;52.182;5.398;2022-12-07T06:56:32;10.23;;;2.90;;
46651;SDS011;32377;52.182;5.398;2022-12-07T06:58:58;17.43;;;3.33;;
46651;SDS011;32377;52.182;5.398;2022-12-07T07:01:23;15.67;;;3.10;;
46651;SDS011;32377;52.182;5.398;2022-12-07T07:03:49;12.40;;;2.90;;
46651;SDS011;32377;52.182;5.398;2022-12-07T07:06:14;15.30;;;3.30;;
46651;SDS011;32377;52.182;5.398;2022-12-07T07:08:40;11.57;;;3.13;;
46651;SDS011;32377;52.182;5.398;2022-12-07T07:11:07;21.87;;;5.10;;
46651;SDS011;32377;52.182;5.398;2022-12-07T07:13:33;18.53;;;4.43;;
46651;SDS011;32377;52.182;5.398;2022-12-07T07:15:59;20.00;;;4.40;;
46651;SDS011;32377;52.182;5.398;2022-12-07T07:18:25;19.63;;;4.33;;
46651;SDS011;32377;52.182;5.398;2022-12-07T07:20:51;15.33;;;4.23;;
46651;SDS011;32377;52.182;5.398;2022-12-07T07:23:18;17.30;;;4.30;;
46651;SDS011;32377;52.182;5.398;2022-12-07T07:25:44;17.33;;;5.10;;
46651;SDS011;32377;52.182;5.398;2022-12-07T07:28:10;20.67;;;5.40;;
46651;SDS011;32377;52.182;5.398;2022-12-07T07:30:36;16.20;;;4.53;;
46651;SDS011;32377;52.182;5.398;2022-12-07T07:33:02;12.33;;;4.23;;
46651;SDS011;32377;52.182;5.398;2022-12-07T07:35:30;10.87;;;4.50;;
46651;SDS011;32377;52.182;5.398;2022-12-07T07:37:57;15.50;;;4.73;;
46651;SDS011;32377;52.182;5.398;2022-12-07T07:40:26;15.43;;;6.17;;
46651;SDS011;32377;52.182;5.398;2022-12-07T07:42:54;14.73;;;5.10;;
46651;SDS011;32377;52.182;5.398;2022-12-07T07:45:20;11.83;;;5.53;;
46651;SDS011;32377;52.182;5.398;2022-12-07T07:47:47;15.03;;;6.37;;
46651;SDS011;32377;52.182;5.398;2022-12-07T07:50:13;15.23;;;7.00;;
46651;SDS011;32377;52.182;5.398;2022-12-07T07:52:39;30.30;;;7.07;;
46651;SDS011;32377;52.182;5.398;2022-12-07T07:55:05;18.90;;;6.97;;
46651;SDS011;32377;52.182;5.398;2022-12-07T07:57:31;23.97;;;7.60;;
46651;SDS011;32377;52.182;5.398;2022-12-07T07:59:56;21.30;;;6.60;;
46651;SDS011;32377;52.182;5.398;2022-12-07T08:02:22;15.17;;;5.90;;
46651;SDS011;32377;52.182;5.398;2022-12-07T08:04:48;15.77;;;7.00;;
46651;SDS011;32377;52.182;5.398;2022-12-07T08:07:14;14.43;;;5.70;;
46651;SDS011;32377;52.182;5.398;2022-12-07T08:09:40;14.43;;;5.80;;
46651;SDS011;32377;52.182;5.398;2022-12-07T08:12:06;24.00;;;8.17;;
46651;SDS011;32377;52.182;5.398;2022-12-07T08:14:32;20.50;;;6.50;;
46651;SDS011;32377;52.182;5.398;2022-12-07T08:16:58;17.03;;;6.17;;
46651;SDS011;32377;52.182;5.398;2022-12-07T08:19:24;18.23;;;5.80;;
46651;SDS011;32377;52.182;5.398;2022-12-07T08:21:50;15.80;;;5.43;;
46651;SDS011;32377;52.182;5.398;2022-12-07T08:24:16;18.57;;;6.43;;
46651;SDS011;32377;52.182;5.398;2022-12-07T08:26:41;14.43;;;4.90;;
46651;SDS011;32377;52.182;5.398;2022-12-07T08:29:07;12.77;;;4.63;;
46651;SDS011;32377;52.182;5.398;2022-12-07T08:31:33;7.87;;;4.13;;
46651;SDS011;32377;52.182;5.398;2022-12-07T08:33:59;17.13;;;4.47;;
46651;SDS011;32377;52.182;5.398;2022-12-07T08:36:25;22.80;;;4.83;;
46651;SDS011;32377;52.182;5.398;2022-12-07T08:38:50;15.43;;;4.57;;
46651;SDS011;32377;52.182;5.398;2022-12-07T08:41:16;8.70;;;4.63;;
46651;SDS011;32377;52.182;5.398;2022-12-07T08:43:42;15.50;;;4.60;;
46651;SDS011;32377;52.182;5.398;2022-12-07T08:46:13;11.50;;;4.40;;
46651;SDS011;32377;52.182;5.398;2022-12-07T08:48:55;10.80;;;4.30;;
46651;SDS011;32377;52.182;5.398;2022-12-07T08:51:23;13.70;;;4.40;;
46651;SDS011;32377;52.182;5.398;2022-12-07T08:53:49;12.32;;;3.78;;
46651;SDS011;32377;52.182;5.398;2022-12-07T08:56:16;12.03;;;3.40;;
46651;SDS011;32377;52.182;5.398;2022-12-07T08:58:43;14.57;;;3.50;;
46651;SDS011;32377;52.182;5.398;2022-12-07T09:01:09;9.03;;;3.00;;
46651;SDS011;32377;52.182;5.398;2022-12-07T09:03:34;9.30;;;2.60;;
46651;SDS011;32377;52.182;5.398;2022-12-07T09:06:00;7.63;;;2.40;;
46651;SDS011;32377;52.182;5.398;2022-12-07T09:08:26;8.37;;;2.97;;
46651;SDS011;32377;52.182;5.398;2022-12-07T09:10:59;7.37;;;2.63;;
46651;SDS011;32377;52.182;5.398;2022-12-07T09:13:25;14.87;;;3.17;;
46651;SDS011;32377;52.182;5.398;2022-12-07T09:15:50;5.33;;;2.83;;
46651;SDS011;32377;52.182;5.398;2022-12-07T09:18:16;12.02;;;3.25;;
46651;SDS011;32377;52.182;5.398;2022-12-07T09:20:42;13.18;;;3.17;;
46651;SDS011;32377;52.182;5.398;2022-12-07T09:23:07;15.48;;;3.35;;
46651;SDS011;32377;52.182;5.398;2022-12-07T09:25:33;12.37;;;3.70;;
46651;SDS011;32377;52.182;5.398;2022-12-07T09:28:00;10.90;;;3.20;;
46651;SDS011;32377;52.182;5.398;2022-12-07T09:30:26;13.32;;;3.08;;
46651;SDS011;32377;52.182;5.398;2022-12-07T09:32:52;8.10;;;2.97;;
46651;SDS011;32377;52.182;5.398;2022-12-07T09:35:19;12.75;;;2.90;;
46651;SDS011;32377;52.182;5.398;2022-12-07T09:37:45;7.75;;;2.70;;
46651;SDS011;32377;52.182;5.398;2022-12-07T09:40:11;7.68;;;3.42;;
46651;SDS011;32377;52.182;5.398;2022-12-07T09:42:39;14.02;;;3.10;;
46651;SDS011;32377;52.182;5.398;2022-12-07T09:45:52;8.88;;;3.65;;
46651;SDS011;32377;52.182;5.398;2022-12-07T09:48:00;12.00;;;3.67;;
46651;SDS011;32377;52.182;5.398;2022-12-07T09:50:27;13.50;;;3.38;;
46651;SDS011;32377;52.182;5.398;2022-12-07T09:52:54;10.57;;;3.28;;
46651;SDS011;32377;52.182;5.398;2022-12-07T09:55:30;12.43;;;3.47;;
46651;SDS011;32377;52.182;5.398;2022-12-07T09:57:58;15.90;;;4.00;;
46651;SDS011;32377;52.182;5.398;2022-12-07T10:00:24;14.10;;;3.75;;
46651;SDS011;32377;52.182;5.398;2022-12-07T10:02:53;11.27;;;3.78;;
46651;SDS011;32377;52.182;5.398;2022-12-07T10:05:25;11.38;;;3.90;;
46651;SDS011;32377;52.182;5.398;2022-12-07T10:07:51;19.10;;;4.82;;
46651;SDS011;32377;52.182;5.398;2022-12-07T10:10:27;16.48;;;4.32;;
46651;SDS011;32377;52.182;5.398;2022-12-07T10:15:23;12.10;;;2.88;;
46651;SDS011;32377;52.182;5.398;2022-12-07T10:18:13;11.27;;;3.15;;
46651;SDS011;32377;52.182;5.398;2022-12-07T10:20:47;10.25;;;2.78;;
46651;SDS011;32377;52.182;5.398;2022-12-07T10:23:18;6.57;;;2.35;;
46651;SDS011;32377;52.182;5.398;2022-12-07T10:25:44;12.57;;;3.30;;
46651;SDS011;32377;52.182;5.398;2022-12-07T10:28:12;8.63;;;2.60;;
46651;SDS011;32377;52.182;5.398;2022-12-07T10:30:47;11.07;;;2.95;;
46651;SDS011;32377;52.182;5.398;2022-12-07T10:33:31;9.73;;;3.25;;
46651;SDS011;32377;52.182;5.398;2022-12-07T10:36:17;6.88;;;2.67;;
46651;SDS011;32377;52.182;5.398;2022-12-07T10:39:11;9.13;;;2.70;;
46651;SDS011;32377;52.182;5.398;2022-12-07T10:41:55;12.60;;;2.78;;
46651;SDS011;32377;52.182;5.398;2022-12-07T10:44:23;13.63;;;3.28;;
46651;SDS011;32377;52.182;5.398;2022-12-07T10:52:28;10.85;;;2.80;;
46651;SDS011;32377;52.182;5.398;2022-12-07T10:57:58;9.25;;;3.00;;
46651;SDS011;32377;52.182;5.398;2022-12-07T11:06:49;7.95;;;2.42;;
46651;SDS011;32377;52.182;5.398;2022-12-07T11:12:47;10.70;;;3.00;;
46651;SDS011;32377;52.182;5.398;2022-12-07T11:21:07;9.50;;;2.25;;
46651;SDS011;32377;52.182;5.398;2022-12-07T11:37:30;8.50;;;2.42;;
46651;SDS011;32377;52.182;5.398;2022-12-07T11:40:05;7.80;;;2.53;;
46651;SDS011;32377;52.182;5.398;2022-12-07T11:42:44;11.20;;;2.50;;
46651;SDS011;32377;52.182;5.398;2022-12-07T11:45:34;8.75;;;2.65;;
46651;SDS011;32377;52.182;5.398;2022-12-07T11:53:21;13.20;;;2.80;;
46651;SDS011;32377;52.182;5.398;2022-12-07T11:56:00;7.07;;;2.17;;
46651;SDS011;32377;52.182;5.398;2022-12-07T11:59:12;9.52;;;2.45;;
46651;SDS011;32377;52.182;5.398;2022-12-07T12:02:11;9.88;;;2.13;;
46651;SDS011;32377;52.182;5.398;2022-12-07T12:04:58;7.60;;;2.22;;
46651;SDS011;32377;52.182;5.398;2022-12-07T12:07:32;6.82;;;2.30;;
46651;SDS011;32377;52.182;5.398;2022-12-07T12:09:59;8.02;;;2.53;;
46651;SDS011;32377;52.182;5.398;2022-12-07T12:21:04;10.18;;;2.00;;
46651;SDS011;32377;52.182;5.398;2022-12-07T12:26:07;12.70;;;1.92;;
46651;SDS011;32377;52.182;5.398;2022-12-07T12:28:40;6.22;;;2.20;;
46651;SDS011;32377;52.182;5.398;2022-12-07T12:31:13;11.38;;;1.77;;
46651;SDS011;32377;52.182;5.398;2022-12-07T12:33:45;9.75;;;2.28;;
46651;SDS011;32377;52.182;5.398;2022-12-07T12:36:23;11.27;;;2.03;;
46651;SDS011;32377;52.182;5.398;2022-12-07T12:46:53;7.90;;;1.77;;
46651;SDS011;32377;52.182;5.398;2022-12-07T12:51:50;8.00;;;1.90;;
46651;SDS011;32377;52.182;5.398;2022-12-07T12:59:25;3.25;;;1.25;;
46651;SDS011;32377;52.182;5.398;2022-12-07T13:02:06;9.40;;;1.30;;
46651;SDS011;32377;52.182;5.398;2022-12-07T13:04:40;5.20;;;0.88;;
46651;SDS011;32377;52.182;5.398;2022-12-07T13:23:37;3.58;;;0.60;;
46651;SDS011;32377;52.182;5.398;2022-12-07T13:26:12;4.35;;;0.68;;
46651;SDS011;32377;52.182;5.398;2022-12-07T13:31:33;3.58;;;0.77;;
46651;SDS011;32377;52.182;5.398;2022-12-07T13:34:26;5.30;;;0.93;;
46651;SDS011;32377;52.182;5.398;2022-12-07T13:37:01;2.55;;;0.80;;
46651;SDS011;32377;52.182;5.398;2022-12-07T13:39:49;4.85;;;1.23;;
46651;SDS011;32377;52.182;5.398;2022-12-07T13:42:24;8.32;;;1.20;;
46651;SDS011;32377;52.182;5.398;2022-12-07T13:44:52;6.88;;;1.23;;
46651;SDS011;32377;52.182;5.398;2022-12-07T13:47:41;4.57;;;1.10;;
46651;SDS011;32377;52.182;5.398;2022-12-07T13:50:27;4.53;;;1.27;;
46651;SDS011;32377;52.182;5.398;2022-12-07T13:52:58;4.63;;;1.30;;
46651;SDS011;32377;52.182;5.398;2022-12-07T13:55:25;2.95;;;1.35;;
46651;SDS011;32377;52.182;5.398;2022-12-07T13:57:52;3.35;;;1.60;;
46651;SDS011;32377;52.182;5.398;2022-12-07T14:00:20;4.40;;;1.70;;
46651;SDS011;32377;52.182;5.398;2022-12-07T14:05:28;9.70;;;2.00;;
46651;SDS011;32377;52.182;5.398;2022-12-07T14:07:58;4.07;;;1.85;;
46651;SDS011;32377;52.182;5.398;2022-12-07T14:10:35;7.18;;;2.05;;
46651;SDS011;32377;52.182;5.398;2022-12-07T14:18:59;5.35;;;2.08;;
46651;SDS011;32377;52.182;5.398;2022-12-07T14:21:27;5.65;;;1.83;;
46651;SDS011;32377;52.182;5.398;2022-12-07T14:26:46;9.88;;;2.40;;
46651;SDS011;32377;52.182;5.398;2022-12-07T14:29:20;4.35;;;2.08;;
46651;SDS011;32377;52.182;5.398;2022-12-07T14:31:49;4.40;;;1.98;;
46651;SDS011;32377;52.182;5.398;2022-12-07T14:34:15;5.38;;;1.92;;
46651;SDS011;32377;52.182;5.398;2022-12-07T14:36:40;8.63;;;2.03;;
46651;SDS011;32377;52.182;5.398;2022-12-07T14:39:06;5.97;;;1.90;;
46651;SDS011;32377;52.182;5.398;2022-12-07T14:41:32;7.40;;;2.20;;
46651;SDS011;32377;52.182;5.398;2022-12-07T14:44:16;6.78;;;1.70;;
46651;SDS011;32377;52.182;5.398;2022-12-07T14:46:43;5.00;;;1.70;;
46651;SDS011;32377;52.182;5.398;2022-12-07T14:49:08;3.50;;;1.80;;
46651;SDS011;32377;52.182;5.398;2022-12-07T14:51:35;11.15;;;2.22;;
46651;SDS011;32377;52.182;5.398;2022-12-07T14:54:02;8.50;;;2.50;;
46651;SDS011;32377;52.182;5.398;2022-12-07T14:56:30;8.30;;;2.17;;
46651;SDS011;32377;52.182;5.398;2022-12-07T14:58:56;6.38;;;2.05;;
46651;SDS011;32377;52.182;5.398;2022-12-07T15:01:22;4.70;;;2.20;;
46651;SDS011;32377;52.182;5.398;2022-12-07T15:03:48;10.18;;;2.35;;
46651;SDS011;32377;52.182;5.398;2022-12-07T15:06:14;11.05;;;2.22;;
46651;SDS011;32377;52.182;5.398;2022-12-07T15:08:41;5.95;;;1.98;;
46651;SDS011;32377;52.182;5.398;2022-12-07T15:11:18;6.93;;;1.95;;
46651;SDS011;32377;52.182;5.398;2022-12-07T15:16:28;4.25;;;1.67;;
46651;SDS011;32377;52.182;5.398;2022-12-07T15:18:54;4.93;;;1.50;;
46651;SDS011;32377;52.182;5.398;2022-12-07T15:21:19;8.20;;;1.92;;
46651;SDS011;32377;52.182;5.398;2022-12-07T15:23:46;5.10;;;1.52;;
46651;SDS011;32377;52.182;5.398;2022-12-07T15:26:12;5.45;;;1.58;;
46651;SDS011;32377;52.182;5.398;2022-12-07T15:28:38;7.13;;;1.88;;
46651;SDS011;32377;52.182;5.398;2022-12-07T15:31:10;6.20;;;1.52;;
46651;SDS011;32377;52.182;5.398;2022-12-07T15:33:39;6.57;;;1.70;;
46651;SDS011;32377;52.182;5.398;2022-12-07T15:36:05;7.30;;;1.83;;
46651;SDS011;32377;52.182;5.398;2022-12-07T15:38:31;5.28;;;1.73;;
46651;SDS011;32377;52.182;5.398;2022-12-07T15:40:56;2.30;;;1.75;;
46651;SDS011;32377;52.182;5.398;2022-12-07T15:43:22;6.35;;;2.10;;
46651;SDS011;32377;52.182;5.398;2022-12-07T15:46:06;9.77;;;2.07;;
46651;SDS011;32377;52.182;5.398;2022-12-07T15:48:32;7.93;;;2.40;;
46651;SDS011;32377;52.182;5.398;2022-12-07T15:51:02;10.32;;;2.83;;
46651;SDS011;32377;52.182;5.398;2022-12-07T15:53:32;9.35;;;2.65;;
46651;SDS011;32377;52.182;5.398;2022-12-07T15:55:58;10.27;;;3.05;;
46651;SDS011;32377;52.182;5.398;2022-12-07T15:58:24;12.10;;;2.65;;
46651;SDS011;32377;52.182;5.398;2022-12-07T16:00:49;7.95;;;2.03;;
46651;SDS011;32377;52.182;5.398;2022-12-07T16:03:15;8.63;;;2.70;;
46651;SDS011;32377;52.182;5.398;2022-12-07T16:05:41;11.38;;;2.60;;
46651;SDS011;32377;52.182;5.398;2022-12-07T16:08:07;7.07;;;2.75;;
46651;SDS011;32377;52.182;5.398;2022-12-07T16:10:34;7.38;;;2.33;;
46651;SDS011;32377;52.182;5.398;2022-12-07T16:13:00;7.47;;;3.10;;
46651;SDS011;32377;52.182;5.398;2022-12-07T16:15:25;6.68;;;2.92;;
46651;SDS011;32377;52.182;5.398;2022-12-07T16:17:51;11.38;;;2.95;;
46651;SDS011;32377;52.182;5.398;2022-12-07T16:20:18;7.78;;;2.47;;
46651;SDS011;32377;52.182;5.398;2022-12-07T16:22:43;7.47;;;2.53;;
46651;SDS011;32377;52.182;5.398;2022-12-07T16:25:09;7.45;;;3.00;;
46651;SDS011;32377;52.182;5.398;2022-12-07T16:27:35;9.68;;;3.35;;
46651;SDS011;32377;52.182;5.398;2022-12-07T16:30:00;7.97;;;2.80;;
46651;SDS011;32377;52.182;5.398;2022-12-07T16:32:26;10.57;;;2.42;;
46651;SDS011;32377;52.182;5.398;2022-12-07T16:34:51;7.32;;;2.97;;
46651;SDS011;32377;52.182;5.398;2022-12-07T16:37:17;8.05;;;3.55;;
46651;SDS011;32377;52.182;5.398;2022-12-07T16:39:43;8.45;;;3.45;;
46651;SDS011;32377;52.182;5.398;2022-12-07T16:42:08;10.97;;;3.40;;
46651;SDS011;32377;52.182;5.398;2022-12-07T16:44:34;7.32;;;3.63;;
46651;SDS011;32377;52.182;5.398;2022-12-07T16:47:00;10.75;;;3.78;;
46651;SDS011;32377;52.182;5.398;2022-12-07T16:49:26;9.65;;;3.67;;
46651;SDS011;32377;52.182;5.398;2022-12-07T16:51:52;6.38;;;3.45;;
46651;SDS011;32377;52.182;5.398;2022-12-07T16:54:17;14.63;;;4.50;;
46651;SDS011;32377;52.182;5.398;2022-12-07T16:56:43;11.15;;;4.20;;
46651;SDS011;32377;52.182;5.398;2022-12-07T16:59:08;19.60;;;10.10;;
46651;SDS011;32377;52.182;5.398;2022-12-07T17:01:34;48.70;;;22.42;;
46651;SDS011;32377;52.182;5.398;2022-12-07T17:04:01;63.67;;;28.42;;
46651;SDS011;32377;52.182;5.398;2022-12-07T17:06:27;49.92;;;23.70;;